createdAt,value
2017-01-01T00:00:06.968Z,3.4
2017-01-01T00:00:16.960Z,3.4
2017-01-01T00:00:26.953Z,3.3
2017-01-01T00:00:36.944Z,3.3
2017-01-01T00:00:46.940Z,3.4
2017-01-01T00:00:56.933Z,3.4
2017-01-01T00:01:06.923Z,3.4
2017-01-01T00:01:16.919Z,3.3
2017-01-01T00:01:26.913Z,3.4
2017-01-01T00:01:36.906Z,3.3
2017-01-01T00:01:46.897Z,3.4
2017-01-01T00:01:56.894Z,3.3
2017-01-01T00:02:06.883Z,3.3
2017-01-01T00:02:16.878Z,3.3
2017-01-01T00:02:26.872Z,3.3
2017-01-01T00:02:36.865Z,3.3
2017-01-01T00:02:46.859Z,3.3
2017-01-01T00:02:56.853Z,3.3
2017-01-01T00:03:06.847Z,3.4
2017-01-01T00:03:16.837Z,3.3
2017-01-01T00:03:26.832Z,3.4
2017-01-01T00:03:36.823Z,3.4
2017-01-01T00:03:46.819Z,3.3
2017-01-01T00:03:56.812Z,3.3
2017-01-01T00:04:06.807Z,3.3
2017-01-01T00:04:16.798Z,3.2
2017-01-01T00:04:26.791Z,3.3
2017-01-01T00:04:36.785Z,3.3
2017-01-01T00:04:46.776Z,3.3
2017-01-01T00:04:56.770Z,3.4
2017-01-01T00:05:06.763Z,3.3
2017-01-01T00:05:16.758Z,3.3
2017-01-01T00:05:26.752Z,3.2
2017-01-01T00:05:36.743Z,3.3
2017-01-01T00:05:46.738Z,3.3
2017-01-01T00:05:56.731Z,3.3
2017-01-01T00:06:06.723Z,3.4
2017-01-01T00:06:16.719Z,3.3
2017-01-01T00:06:26.711Z,3.3
2017-01-01T00:06:36.705Z,3.2
2017-01-01T00:06:46.698Z,3.4
2017-01-01T00:06:56.690Z,3.3
2017-01-01T00:07:06.682Z,3.4
2017-01-01T00:07:16.677Z,3.3
2017-01-01T00:07:26.673Z,3.4
2017-01-01T00:07:36.662Z,3.3
2017-01-01T00:07:46.654Z,3.3
2017-01-01T00:07:56.650Z,3.3
2017-01-01T00:08:06.642Z,3.3
2017-01-01T00:08:16.637Z,3.3
2017-01-01T00:08:26.628Z,3.3
2017-01-01T00:08:36.624Z,3.3
2017-01-01T00:08:46.614Z,3.3
2017-01-01T00:08:56.609Z,3.3
2017-01-01T00:09:06.601Z,3.3
2017-01-01T00:09:16.595Z,3.3
2017-01-01T00:09:26.590Z,3.3
2017-01-01T00:09:36.583Z,3.3
2017-01-01T00:09:46.575Z,3.3
2017-01-01T00:09:56.570Z,3.3
2017-01-01T00:10:06.561Z,3.3
2017-01-01T00:10:16.556Z,3.3
2017-01-01T00:10:26.551Z,3.3
2017-01-01T00:10:36.543Z,3.3
2017-01-01T00:10:46.534Z,3.3
2017-01-01T00:10:56.527Z,3.3
2017-01-01T00:11:06.523Z,3.3
2017-01-01T00:11:16.514Z,3.3
2017-01-01T00:11:26.509Z,3.3
2017-01-01T00:11:36.504Z,3.3
2017-01-01T00:11:46.495Z,3.2
2017-01-01T00:11:56.489Z,3.3
2017-01-01T00:12:06.483Z,3.3
2017-01-01T00:12:16.476Z,3.3
2017-01-01T00:12:26.469Z,3.2
2017-01-01T00:12:36.462Z,3.3
2017-01-01T00:12:46.455Z,3.3
2017-01-01T00:12:56.447Z,3.3
2017-01-01T00:13:06.439Z,3.3
2017-01-01T00:13:16.434Z,3.3
2017-01-01T00:13:26.428Z,3.3
2017-01-01T00:13:36.419Z,3.3
2017-01-01T00:13:46.413Z,3.3
2017-01-01T00:13:56.410Z,3.3
2017-01-01T00:14:06.406Z,3.3
2017-01-01T00:14:16.393Z,3.3
2017-01-01T00:14:26.388Z,3.3
2017-01-01T00:14:36.384Z,3.3
2017-01-01T00:14:46.374Z,3.3
2017-01-01T00:14:56.369Z,3.3
2017-01-01T00:15:06.361Z,3.4
2017-01-01T00:15:16.356Z,3.3
2017-01-01T00:15:26.347Z,3.3
2017-01-01T00:15:36.339Z,3.3
2017-01-01T00:15:46.335Z,3.3
2017-01-01T00:15:56.327Z,3.3
2017-01-01T00:16:06.320Z,3.3
2017-01-01T00:16:16.314Z,3.4
2017-01-01T00:16:26.309Z,3.3
2017-01-01T00:16:36.301Z,3.3
2017-01-01T00:16:46.294Z,3.3
2017-01-01T00:16:56.285Z,3.3
2017-01-01T00:17:06.279Z,3.3
2017-01-01T00:17:16.273Z,3.3
2017-01-01T00:17:26.265Z,3.3
2017-01-01T00:17:36.260Z,3.3
2017-01-01T00:17:46.254Z,3.3
2017-01-01T00:17:56.249Z,3.2
2017-01-01T00:18:06.238Z,3.3
2017-01-01T00:18:16.231Z,3.2
2017-01-01T00:18:26.228Z,3.3
2017-01-01T00:18:36.218Z,3.2
2017-01-01T00:18:46.215Z,3.2
2017-01-01T00:18:56.207Z,3.2
2017-01-01T00:19:06.200Z,3.3
2017-01-01T00:19:16.193Z,3.3
2017-01-01T00:19:26.187Z,3.2
2017-01-01T00:19:36.179Z,3.2
2017-01-01T00:19:46.171Z,3.2
2017-01-01T00:19:56.167Z,3.2
2017-01-01T00:20:06.158Z,3.3
2017-01-01T00:20:16.151Z,3.3
2017-01-01T00:20:26.145Z,3.2
2017-01-01T00:20:36.138Z,3.3
2017-01-01T00:20:46.132Z,3.3
2017-01-01T00:20:56.124Z,3.3
2017-01-01T00:21:06.117Z,3.3
2017-01-01T00:21:16.110Z,3.2
2017-01-01T00:21:26.107Z,3.2
2017-01-01T00:21:36.098Z,3.3
2017-01-01T00:21:46.092Z,3.2
2017-01-01T00:21:56.085Z,3.2
2017-01-01T00:22:06.080Z,3.3
2017-01-01T00:22:16.070Z,3.2
2017-01-01T00:22:26.063Z,3.2
2017-01-01T00:22:36.056Z,3.3
2017-01-01T00:22:46.053Z,3.2
2017-01-01T00:22:56.043Z,3.3
2017-01-01T00:23:06.038Z,3.2
2017-01-01T00:23:16.030Z,3.3
2017-01-01T00:23:26.024Z,3.3
2017-01-01T00:23:36.019Z,3.2
2017-01-01T00:23:46.012Z,3.3
2017-01-01T00:23:56.005Z,3.3
2017-01-01T00:24:05.996Z,3.3
2017-01-01T00:24:15.991Z,3.2
2017-01-01T00:24:25.986Z,3.3
2017-01-01T00:24:35.977Z,3.3
2017-01-01T00:24:45.970Z,3.2
2017-01-01T00:24:55.963Z,3.2
2017-01-01T00:25:05.957Z,3.3
2017-01-01T00:25:15.949Z,3.2
2017-01-01T00:25:25.944Z,3.2
2017-01-01T00:25:35.938Z,3.2
2017-01-01T00:25:45.928Z,3.2
2017-01-01T00:25:55.923Z,3.3
2017-01-01T00:26:05.917Z,3.3
2017-01-01T00:26:15.909Z,3.2
2017-01-01T00:26:25.903Z,3.2
2017-01-01T00:26:35.897Z,3.2
2017-01-01T00:26:45.890Z,3.2
2017-01-01T00:26:55.881Z,3.1
2017-01-01T00:27:05.877Z,3.2
2017-01-01T00:27:15.873Z,3.2
2017-01-01T00:27:25.864Z,3.2
2017-01-01T00:27:35.856Z,3.2
2017-01-01T00:27:45.850Z,3.2
2017-01-01T00:27:55.841Z,3.3
2017-01-01T00:28:05.837Z,3.2
2017-01-01T00:28:15.829Z,3.1
2017-01-01T00:28:25.820Z,3.1
2017-01-01T00:28:35.816Z,3.1
2017-01-01T00:28:45.810Z,3.2
2017-01-01T00:28:55.801Z,3.1
2017-01-01T00:29:05.797Z,3.1
2017-01-01T00:29:15.787Z,3.1
2017-01-01T00:29:25.784Z,3.1
2017-01-01T00:29:35.776Z,3.1
2017-01-01T00:29:45.768Z,3.2
2017-01-01T00:29:55.761Z,3.1
2017-01-01T00:30:05.755Z,3.1
2017-01-01T00:30:15.749Z,3.2
2017-01-01T00:30:25.742Z,3.3
2017-01-01T00:30:35.733Z,3.1
2017-01-01T00:30:45.727Z,3.1
2017-01-01T00:30:55.719Z,3.2
2017-01-01T00:31:05.715Z,3.2
2017-01-01T00:31:15.707Z,3.1
2017-01-01T00:31:25.700Z,3.2
2017-01-01T00:31:35.695Z,3.1
2017-01-01T00:31:45.687Z,3.1
2017-01-01T00:31:55.679Z,3.1
2017-01-01T00:32:05.674Z,3.2
2017-01-01T00:32:15.668Z,3.1
2017-01-01T00:32:25.659Z,3.2
2017-01-01T00:32:35.654Z,3.1
2017-01-01T00:32:45.647Z,3.1
2017-01-01T00:32:55.642Z,3.1
2017-01-01T00:33:05.634Z,3.1
2017-01-01T00:33:15.628Z,3.1
2017-01-01T00:33:25.621Z,3.1
2017-01-01T00:33:35.614Z,3.1
2017-01-01T00:33:45.608Z,3.1
2017-01-01T00:33:55.605Z,3.2
2017-01-01T00:34:05.595Z,3.1
2017-01-01T00:34:15.585Z,3.1
2017-01-01T00:34:25.578Z,3.1
2017-01-01T00:34:35.574Z,3.1
2017-01-01T00:34:45.567Z,3.1
2017-01-01T00:34:55.558Z,3.1
2017-01-01T00:35:05.554Z,3.1
2017-01-01T00:35:15.548Z,3.1
2017-01-01T00:35:25.537Z,3.1
2017-01-01T00:35:35.533Z,3
2017-01-01T00:35:45.523Z,3.1
2017-01-01T00:35:55.519Z,3.1
2017-01-01T00:36:05.513Z,3.1
2017-01-01T00:36:15.506Z,3.1
2017-01-01T00:36:25.501Z,3.1
2017-01-01T00:36:35.491Z,3.1
2017-01-01T00:36:45.483Z,3.1
2017-01-01T00:36:55.477Z,3.1
2017-01-01T00:37:05.472Z,3.1
2017-01-01T00:37:15.465Z,3.1
2017-01-01T00:37:25.460Z,3.1
2017-01-01T00:37:35.452Z,3.1
2017-01-01T00:37:45.447Z,3.1
2017-01-01T00:37:55.439Z,3.1
2017-01-01T00:38:05.430Z,3.1
2017-01-01T00:38:15.425Z,3.1
2017-01-01T00:38:25.420Z,3.1
2017-01-01T00:38:35.412Z,3.1
2017-01-01T00:38:45.405Z,3.1
2017-01-01T00:38:55.395Z,3.1
2017-01-01T00:39:05.394Z,3.1
2017-01-01T00:39:15.384Z,3.1
2017-01-01T00:39:25.378Z,3.1
2017-01-01T00:39:35.371Z,3.1
2017-01-01T00:39:45.363Z,3.1
2017-01-01T00:39:55.359Z,3.1
2017-01-01T00:40:05.352Z,3
2017-01-01T00:40:15.342Z,3
2017-01-01T00:40:25.337Z,3
2017-01-01T00:40:35.329Z,3
2017-01-01T00:40:45.322Z,3.1
2017-01-01T00:40:55.315Z,3.1
2017-01-01T00:41:05.310Z,3.1
2017-01-01T00:41:15.305Z,3.1
2017-01-01T00:41:25.299Z,3.1
2017-01-01T00:41:35.290Z,3
2017-01-01T00:41:45.285Z,3.1
2017-01-01T00:41:55.275Z,3.1
2017-01-01T00:42:05.271Z,3.1
2017-01-01T00:42:15.261Z,3.1
2017-01-01T00:42:25.256Z,3.1
2017-01-01T00:42:35.250Z,3.1
2017-01-01T00:42:45.241Z,3.1
2017-01-01T00:42:55.237Z,3.1
2017-01-01T00:43:05.229Z,3.1
2017-01-01T00:43:15.221Z,3.1
2017-01-01T00:43:25.214Z,3.1
2017-01-01T00:43:35.207Z,3.1
2017-01-01T00:43:45.201Z,3.1
2017-01-01T00:43:55.193Z,3.1
2017-01-01T00:44:05.191Z,3.1
2017-01-01T00:44:15.183Z,3.1
2017-01-01T00:44:25.177Z,3.1
2017-01-01T00:44:35.169Z,3.1
2017-01-01T00:44:45.162Z,3.1
2017-01-01T00:44:55.154Z,3.1
2017-01-01T00:45:05.150Z,3.1
2017-01-01T00:45:15.141Z,3.1
2017-01-01T00:45:25.134Z,3
2017-01-01T00:45:35.129Z,3.1
2017-01-01T00:45:45.122Z,3
2017-01-01T00:45:55.113Z,3.1
2017-01-01T00:46:05.108Z,3
2017-01-01T00:46:15.100Z,3.1
2017-01-01T00:46:25.095Z,3.1
2017-01-01T00:46:35.086Z,3
2017-01-01T00:46:45.079Z,3
2017-01-01T00:46:55.072Z,3
2017-01-01T00:47:05.065Z,3
2017-01-01T00:47:15.063Z,3
2017-01-01T00:47:25.053Z,3
2017-01-01T00:47:35.048Z,3
2017-01-01T00:47:45.038Z,3.1
2017-01-01T00:47:55.032Z,3
2017-01-01T00:48:05.028Z,3
2017-01-01T00:48:15.019Z,3.1
2017-01-01T00:48:25.013Z,3
2017-01-01T00:48:35.005Z,3.1
2017-01-01T00:48:45.000Z,3
2017-01-01T00:48:54.994Z,3
2017-01-01T00:49:04.987Z,3
2017-01-01T00:49:14.979Z,3
2017-01-01T00:49:24.974Z,3
2017-01-01T00:49:34.967Z,3
2017-01-01T00:49:44.960Z,3
2017-01-01T00:49:54.951Z,2.9
2017-01-01T00:50:04.947Z,3
2017-01-01T00:50:14.940Z,3
2017-01-01T00:50:24.931Z,3
2017-01-01T00:50:34.926Z,3
2017-01-01T00:50:44.920Z,3
2017-01-01T00:50:54.909Z,3
2017-01-01T00:51:04.907Z,3
2017-01-01T00:51:14.901Z,3
2017-01-01T00:51:24.894Z,2.9
2017-01-01T00:51:34.883Z,3
2017-01-01T00:51:44.876Z,2.9
2017-01-01T00:51:54.869Z,3
2017-01-01T00:52:04.866Z,3
2017-01-01T00:52:14.857Z,3.1
2017-01-01T00:52:24.850Z,3
2017-01-01T00:52:34.843Z,3
2017-01-01T00:52:44.838Z,3
2017-01-01T00:52:54.831Z,3
2017-01-01T00:53:04.822Z,3
2017-01-01T00:53:14.817Z,3
2017-01-01T00:53:24.811Z,3
2017-01-01T00:53:34.804Z,2.9
2017-01-01T00:53:44.799Z,2.9
2017-01-01T00:53:54.791Z,2.9
2017-01-01T00:54:04.781Z,2.9
2017-01-01T00:54:14.778Z,3
2017-01-01T00:54:24.768Z,3.1
2017-01-01T00:54:34.762Z,2.9
2017-01-01T00:54:44.757Z,2.9
2017-01-01T00:54:54.748Z,2.9
2017-01-01T00:55:04.742Z,3
2017-01-01T00:55:14.736Z,3
2017-01-01T00:55:24.730Z,2.9
2017-01-01T00:55:34.722Z,3
2017-01-01T00:55:44.715Z,2.9
2017-01-01T00:55:54.710Z,3
2017-01-01T00:56:04.701Z,3
2017-01-01T00:56:14.694Z,3
2017-01-01T00:56:24.689Z,2.9
2017-01-01T00:56:34.682Z,3
2017-01-01T00:56:44.675Z,2.9
2017-01-01T00:56:54.670Z,3
2017-01-01T00:57:04.660Z,2.9
2017-01-01T00:57:14.656Z,3
2017-01-01T00:57:24.650Z,3
2017-01-01T00:57:34.643Z,3
2017-01-01T00:57:44.635Z,2.9
2017-01-01T00:57:54.627Z,3
2017-01-01T00:58:04.622Z,2.9
2017-01-01T00:58:14.614Z,2.9
2017-01-01T00:58:24.607Z,3
2017-01-01T00:58:34.602Z,2.8
2017-01-01T00:58:44.593Z,2.9
2017-01-01T00:58:54.585Z,2.9
2017-01-01T00:59:04.579Z,2.9
2017-01-01T00:59:14.574Z,2.9
2017-01-01T00:59:24.568Z,3
2017-01-01T00:59:34.560Z,2.9
2017-01-01T00:59:44.554Z,2.9
2017-01-01T00:59:54.548Z,3
2017-01-01T01:00:04.539Z,2.8
2017-01-01T01:00:14.532Z,2.8
2017-01-01T01:00:24.527Z,3
2017-01-01T01:00:34.521Z,2.9
2017-01-01T01:00:44.514Z,3
2017-01-01T01:00:54.509Z,2.9
2017-01-01T01:01:04.501Z,3
2017-01-01T01:01:14.494Z,2.9
2017-01-01T01:01:24.488Z,2.9
2017-01-01T01:01:34.480Z,2.9
2017-01-01T01:01:44.472Z,2.8
2017-01-01T01:01:54.465Z,2.9
2017-01-01T01:02:04.459Z,2.9
2017-01-01T01:02:14.452Z,2.9
2017-01-01T01:02:24.445Z,2.8
2017-01-01T01:02:34.441Z,2.9
2017-01-01T01:02:44.434Z,2.8
2017-01-01T01:02:54.424Z,2.9
2017-01-01T01:03:04.417Z,2.8
2017-01-01T01:03:14.414Z,2.9
2017-01-01T01:03:24.404Z,2.9
2017-01-01T01:03:34.400Z,2.9
2017-01-01T01:03:44.390Z,2.9
2017-01-01T01:03:54.383Z,2.9
2017-01-01T01:04:04.377Z,2.9
2017-01-01T01:04:14.373Z,2.9
2017-01-01T01:04:24.365Z,2.8
2017-01-01T01:04:34.359Z,2.9
2017-01-01T01:04:44.352Z,3
2017-01-01T01:04:54.343Z,2.9
2017-01-01T01:05:04.336Z,2.9
2017-01-01T01:05:14.329Z,2.9
2017-01-01T01:05:24.323Z,2.8
2017-01-01T01:05:34.321Z,2.9
2017-01-01T01:05:44.309Z,2.9
2017-01-01T01:05:54.303Z,2.8
2017-01-01T01:06:04.297Z,2.9
2017-01-01T01:06:14.289Z,2.9
2017-01-01T01:06:24.282Z,2.9
2017-01-01T01:06:34.276Z,2.9
2017-01-01T01:06:44.271Z,2.8
2017-01-01T01:06:54.262Z,2.9
2017-01-01T01:07:04.254Z,2.8
2017-01-01T01:07:14.251Z,2.9
2017-01-01T01:07:24.241Z,2.9
2017-01-01T01:07:34.238Z,2.9
2017-01-01T01:07:44.227Z,2.9
2017-01-01T01:07:54.220Z,2.8
2017-01-01T01:08:04.217Z,2.9
2017-01-01T01:08:14.212Z,2.9
2017-01-01T01:08:24.201Z,2.8
2017-01-01T01:08:34.196Z,2.8
2017-01-01T01:08:44.189Z,2.9
2017-01-01T01:08:54.181Z,2.9
2017-01-01T01:09:04.176Z,2.9
2017-01-01T01:09:14.168Z,2.9
2017-01-01T01:09:24.163Z,2.8
2017-01-01T01:09:34.156Z,2.8
2017-01-01T01:09:44.150Z,2.9
2017-01-01T01:09:54.141Z,2.9
2017-01-01T01:10:04.135Z,2.8
2017-01-01T01:10:14.126Z,2.9
2017-01-01T01:10:24.121Z,2.9
2017-01-01T01:10:34.116Z,2.9
2017-01-01T01:10:44.109Z,2.9
2017-01-01T01:10:54.102Z,2.9
2017-01-01T01:11:04.094Z,2.9
2017-01-01T01:11:14.086Z,2.8
2017-01-01T01:11:24.079Z,2.9
2017-01-01T01:11:34.075Z,2.9
2017-01-01T01:11:44.065Z,2.9
2017-01-01T01:11:54.060Z,2.9
2017-01-01T01:12:04.055Z,2.9
2017-01-01T01:12:14.046Z,2.9
2017-01-01T01:12:24.040Z,2.9
2017-01-01T01:12:34.034Z,2.8
2017-01-01T01:12:44.028Z,2.9
2017-01-01T01:12:54.019Z,2.9
2017-01-01T01:13:04.013Z,2.9
2017-01-01T01:13:14.004Z,2.9
2017-01-01T01:13:23.998Z,2.8
2017-01-01T01:13:33.993Z,2.9
2017-01-01T01:13:43.987Z,2.9
2017-01-01T01:13:53.980Z,2.9
2017-01-01T01:14:03.970Z,2.8
2017-01-01T01:14:13.968Z,2.9
2017-01-01T01:14:23.957Z,2.8
2017-01-01T01:14:33.953Z,2.9
2017-01-01T01:14:43.945Z,2.8
2017-01-01T01:14:53.939Z,2.8
2017-01-01T01:15:03.932Z,2.8
2017-01-01T01:15:13.924Z,2.8
2017-01-01T01:15:23.916Z,2.9
2017-01-01T01:15:33.912Z,2.8
2017-01-01T01:15:43.913Z,2.7
2017-01-01T01:15:53.897Z,2.7
2017-01-01T01:16:03.893Z,2.8
2017-01-01T01:16:13.884Z,2.7
2017-01-01T01:16:23.876Z,2.8
2017-01-01T01:16:33.871Z,2.8
2017-01-01T01:16:43.864Z,2.8
2017-01-01T01:16:53.858Z,2.8
2017-01-01T01:17:03.850Z,2.8
2017-01-01T01:17:13.845Z,2.8
2017-01-01T01:17:23.837Z,2.8
2017-01-01T01:17:33.830Z,2.8
2017-01-01T01:17:43.822Z,2.8
2017-01-01T01:17:53.817Z,2.8
2017-01-01T01:18:03.810Z,2.8
2017-01-01T01:18:13.801Z,2.8
2017-01-01T01:18:23.797Z,2.8
2017-01-01T01:18:33.788Z,2.8
2017-01-01T01:18:43.784Z,2.8
2017-01-01T01:18:53.775Z,2.8
2017-01-01T01:19:03.771Z,2.8
2017-01-01T01:19:13.761Z,2.8
2017-01-01T01:19:23.755Z,2.8
2017-01-01T01:19:33.750Z,2.8
2017-01-01T01:19:43.740Z,2.8
2017-01-01T01:19:53.737Z,2.8
2017-01-01T01:20:03.729Z,2.8
2017-01-01T01:20:13.719Z,2.8
2017-01-01T01:20:23.713Z,2.8
2017-01-01T01:20:33.709Z,2.8
2017-01-01T01:20:43.703Z,2.8
2017-01-01T01:20:53.695Z,2.7
2017-01-01T01:21:03.688Z,2.8
2017-01-01T01:21:13.679Z,2.8
2017-01-01T01:21:23.675Z,2.8
2017-01-01T01:21:33.667Z,2.8
2017-01-01T01:21:43.661Z,2.8
2017-01-01T01:21:53.655Z,2.8
2017-01-01T01:22:03.647Z,2.8
2017-01-01T01:22:13.641Z,2.8
2017-01-01T01:22:23.663Z,2.8
2017-01-01T01:22:33.625Z,2.8
2017-01-01T01:22:43.622Z,2.8
2017-01-01T01:22:53.613Z,2.8
2017-01-01T01:23:03.606Z,2.8
2017-01-01T01:23:13.598Z,2.8
2017-01-01T01:23:23.592Z,2.8
2017-01-01T01:23:33.589Z,2.7
2017-01-01T01:23:43.578Z,2.8
2017-01-01T01:23:53.571Z,2.8
2017-01-01T01:24:03.567Z,2.8
2017-01-01T01:24:13.558Z,2.8
2017-01-01T01:24:23.550Z,2.8
2017-01-01T01:24:33.547Z,2.7
2017-01-01T01:24:43.540Z,2.7
2017-01-01T01:24:53.530Z,2.7
2017-01-01T01:25:03.522Z,2.8
2017-01-01T01:25:13.518Z,2.8
2017-01-01T01:25:23.512Z,2.8
2017-01-01T01:25:33.502Z,2.8
2017-01-01T01:25:43.499Z,2.8
2017-01-01T01:25:53.490Z,2.8
2017-01-01T01:26:03.482Z,2.8
2017-01-01T01:26:13.476Z,2.7
2017-01-01T01:26:23.470Z,2.8
2017-01-01T01:26:33.461Z,2.8
2017-01-01T01:26:43.456Z,2.8
2017-01-01T01:26:53.450Z,2.8
2017-01-01T01:27:03.445Z,2.8
2017-01-01T01:27:13.436Z,2.7
2017-01-01T01:27:23.427Z,2.8
2017-01-01T01:27:33.422Z,2.8
2017-01-01T01:27:43.415Z,2.7
2017-01-01T01:27:53.409Z,2.8
2017-01-01T01:28:03.401Z,2.8
2017-01-01T01:28:13.396Z,2.8
2017-01-01T01:28:23.389Z,2.8
2017-01-01T01:28:33.384Z,2.7
2017-01-01T01:28:43.377Z,2.8
2017-01-01T01:28:53.369Z,2.7
2017-01-01T01:29:03.362Z,2.8
2017-01-01T01:29:13.361Z,2.8
2017-01-01T01:29:23.349Z,2.7
2017-01-01T01:29:33.340Z,2.8
2017-01-01T01:29:43.335Z,2.8
2017-01-01T01:29:53.327Z,2.7
2017-01-01T01:30:03.322Z,2.7
2017-01-01T01:30:13.315Z,2.7
2017-01-01T01:30:23.307Z,2.7
2017-01-01T01:30:33.301Z,2.7
2017-01-01T01:30:43.292Z,2.7
2017-01-01T01:30:53.285Z,2.7
2017-01-01T01:31:03.279Z,2.8
2017-01-01T01:31:13.275Z,2.7
2017-01-01T01:31:23.265Z,2.8
2017-01-01T01:31:33.259Z,2.7
2017-01-01T01:31:43.254Z,2.7
2017-01-01T01:31:53.246Z,2.7
2017-01-01T01:32:03.238Z,2.8
2017-01-01T01:32:13.233Z,2.7
2017-01-01T01:32:23.226Z,2.7
2017-01-01T01:32:33.220Z,2.6
2017-01-01T01:32:43.214Z,2.6
2017-01-01T01:32:53.205Z,2.7
2017-01-01T01:33:03.200Z,2.7
2017-01-01T01:33:13.193Z,2.7
2017-01-01T01:33:23.186Z,2.6
2017-01-01T01:33:33.177Z,2.7
2017-01-01T01:33:43.171Z,2.6
2017-01-01T01:33:53.166Z,2.7
2017-01-01T01:34:03.157Z,2.7
2017-01-01T01:34:13.149Z,2.7
2017-01-01T01:34:23.142Z,2.7
2017-01-01T01:34:33.138Z,2.7
2017-01-01T01:34:43.129Z,2.7
2017-01-01T01:34:53.124Z,2.7
2017-01-01T01:35:03.117Z,2.7
2017-01-01T01:35:13.109Z,2.7
2017-01-01T01:35:23.102Z,2.7
2017-01-01T01:35:33.098Z,2.7
2017-01-01T01:35:43.091Z,2.7
2017-01-01T01:35:53.083Z,2.6
2017-01-01T01:36:03.078Z,2.7
2017-01-01T01:36:13.068Z,2.7
2017-01-01T01:36:23.064Z,2.6
2017-01-01T01:36:33.057Z,2.6
2017-01-01T01:36:43.049Z,2.7
2017-01-01T01:36:53.042Z,2.6
2017-01-01T01:37:03.034Z,2.6
2017-01-01T01:37:13.030Z,2.7
2017-01-01T01:37:23.021Z,2.7
2017-01-01T01:37:33.013Z,2.6
2017-01-01T01:37:43.007Z,2.6
2017-01-01T01:37:53.003Z,2.6
2017-01-01T01:38:02.993Z,2.6
2017-01-01T01:38:12.987Z,2.6
2017-01-01T01:38:22.983Z,2.6
2017-01-01T01:38:32.976Z,2.6
2017-01-01T01:38:42.971Z,2.6
2017-01-01T01:38:52.963Z,2.6
2017-01-01T01:39:02.955Z,2.6
2017-01-01T01:39:12.949Z,2.7
2017-01-01T01:39:22.942Z,2.6
2017-01-01T01:39:32.932Z,2.6
2017-01-01T01:39:42.926Z,2.6
2017-01-01T01:39:52.920Z,2.6
2017-01-01T01:40:02.915Z,2.6
2017-01-01T01:40:12.907Z,2.6
2017-01-01T01:40:22.901Z,2.6
2017-01-01T01:40:32.894Z,2.5
2017-01-01T01:40:42.885Z,2.7
2017-01-01T01:40:52.879Z,2.6
2017-01-01T01:41:02.871Z,2.5
2017-01-01T01:41:12.867Z,2.6
2017-01-01T01:41:22.859Z,2.5
2017-01-01T01:41:32.852Z,2.5
2017-01-01T01:41:42.848Z,2.5
2017-01-01T01:41:52.838Z,2.5
2017-01-01T01:42:02.832Z,2.6
2017-01-01T01:42:12.825Z,2.5
2017-01-01T01:42:22.818Z,2.5
2017-01-01T01:42:32.812Z,2.5
2017-01-01T01:42:42.806Z,2.6
2017-01-01T01:42:52.797Z,2.5
2017-01-01T01:43:02.791Z,2.6
2017-01-01T01:43:12.785Z,2.6
2017-01-01T01:43:22.778Z,2.5
2017-01-01T01:43:32.769Z,2.5
2017-01-01T01:43:42.764Z,2.5
2017-01-01T01:43:52.758Z,2.5
2017-01-01T01:44:02.749Z,2.5
2017-01-01T01:44:12.745Z,2.5
2017-01-01T01:44:22.735Z,2.5
2017-01-01T01:44:32.731Z,2.5
2017-01-01T01:44:42.722Z,2.5
2017-01-01T01:44:52.716Z,2.5
2017-01-01T01:45:02.708Z,2.5
2017-01-01T01:45:12.703Z,2.5
2017-01-01T01:45:22.696Z,2.6
2017-01-01T01:45:32.687Z,2.5
2017-01-01T01:45:42.685Z,2.5
2017-01-01T01:45:52.675Z,2.5
2017-01-01T01:46:02.670Z,2.5
2017-01-01T01:46:12.661Z,2.5
2017-01-01T01:46:22.653Z,2.5
2017-01-01T01:46:32.649Z,2.5
2017-01-01T01:46:42.643Z,2.5
2017-01-01T01:46:52.635Z,2.5
2017-01-01T01:47:02.627Z,2.5
2017-01-01T01:47:12.624Z,2.5
2017-01-01T01:47:22.615Z,2.5
2017-01-01T01:47:32.610Z,2.5
2017-01-01T01:47:42.602Z,2.5
2017-01-01T01:47:52.596Z,2.5
2017-01-01T01:48:02.588Z,2.5
2017-01-01T01:48:12.580Z,2.5
2017-01-01T01:48:22.572Z,2.5
2017-01-01T01:48:32.569Z,2.5
2017-01-01T01:48:42.559Z,2.5
2017-01-01T01:48:52.553Z,2.5
2017-01-01T01:49:02.545Z,2.5
2017-01-01T01:49:12.542Z,2.5
2017-01-01T01:49:22.535Z,2.5
2017-01-01T01:49:32.528Z,2.5
2017-01-01T01:49:42.518Z,2.5
2017-01-01T01:49:52.517Z,2.5
2017-01-01T01:50:02.507Z,2.5
2017-01-01T01:50:12.499Z,2.5
2017-01-01T01:50:22.490Z,2.5
2017-01-01T01:50:32.487Z,2.5
2017-01-01T01:50:42.477Z,2.5
2017-01-01T01:50:52.473Z,2.5
2017-01-01T01:51:02.466Z,2.5
2017-01-01T01:51:12.461Z,2.5
2017-01-01T01:51:22.452Z,2.6
2017-01-01T01:51:32.445Z,2.4
2017-01-01T01:51:42.436Z,2.4
2017-01-01T01:51:52.432Z,2.5
2017-01-01T01:52:02.423Z,2.5
2017-01-01T01:52:12.416Z,2.4
2017-01-01T01:52:22.412Z,2.5
2017-01-01T01:52:32.405Z,2.4
2017-01-01T01:52:42.399Z,2.5
2017-01-01T01:52:52.392Z,2.4
2017-01-01T01:53:02.385Z,2.4
2017-01-01T01:53:12.383Z,2.5
2017-01-01T01:53:22.372Z,2.4
2017-01-01T01:53:32.361Z,2.4
2017-01-01T01:53:42.358Z,2.5
2017-01-01T01:53:52.351Z,2.4
2017-01-01T01:54:02.344Z,2.5
2017-01-01T01:54:12.336Z,2.4
2017-01-01T01:54:22.328Z,2.5
2017-01-01T01:54:32.321Z,2.5
2017-01-01T01:54:42.318Z,2.5
2017-01-01T01:54:52.310Z,2.5
2017-01-01T01:55:02.304Z,2.4
2017-01-01T01:55:12.294Z,2.5
2017-01-01T01:55:22.287Z,2.5
2017-01-01T01:55:32.280Z,2.5
2017-01-01T01:55:42.274Z,2.5
2017-01-01T01:55:52.267Z,2.6
2017-01-01T01:56:02.263Z,2.5
2017-01-01T01:56:12.253Z,2.5
2017-01-01T01:56:22.250Z,2.5
2017-01-01T01:56:32.242Z,2.5
2017-01-01T01:56:42.233Z,2.6
2017-01-01T01:56:52.229Z,2.5
2017-01-01T01:57:02.220Z,2.5
2017-01-01T01:57:12.214Z,2.5
2017-01-01T01:57:22.213Z,2.5
2017-01-01T01:57:32.198Z,2.5
2017-01-01T01:57:42.192Z,2.5
2017-01-01T01:57:52.187Z,2.5
2017-01-01T01:58:02.180Z,2.5
2017-01-01T01:58:12.174Z,2.4
2017-01-01T01:58:22.164Z,2.5
2017-01-01T01:58:32.160Z,2.4
2017-01-01T01:58:42.154Z,2.5
2017-01-01T01:58:52.164Z,2.4
2017-01-01T01:59:02.141Z,2.5
2017-01-01T01:59:12.134Z,2.4
2017-01-01T01:59:22.126Z,2.5
2017-01-01T01:59:32.120Z,2.4
2017-01-01T01:59:42.113Z,2.5
2017-01-01T01:59:52.107Z,2.5
2017-01-01T02:00:02.099Z,2.4
2017-01-01T02:00:12.092Z,2.5
2017-01-01T02:00:22.087Z,2.6
2017-01-01T02:00:32.080Z,2.5
2017-01-01T02:00:42.071Z,2.5
2017-01-01T02:00:52.067Z,2.5
2017-01-01T02:01:02.057Z,2.5
2017-01-01T02:01:12.050Z,2.5
2017-01-01T02:01:22.047Z,2.5
2017-01-01T02:01:32.039Z,2.5
2017-01-01T02:01:42.031Z,2.4
2017-01-01T02:01:52.024Z,2.5
2017-01-01T02:02:02.015Z,2.5
2017-01-01T02:02:12.011Z,2.4
2017-01-01T02:02:22.003Z,2.4
2017-01-01T02:02:31.997Z,2.4
2017-01-01T02:02:41.990Z,2.5
2017-01-01T02:02:51.984Z,2.5
2017-01-01T02:03:01.978Z,2.4
2017-01-01T02:03:11.969Z,2.4
2017-01-01T02:03:21.961Z,2.4
2017-01-01T02:03:31.954Z,2.4
2017-01-01T02:03:41.950Z,2.4
2017-01-01T02:03:51.942Z,2.4
2017-01-01T02:04:01.934Z,2.4
2017-01-01T02:04:11.929Z,2.4
2017-01-01T02:04:21.920Z,2.4
2017-01-01T02:04:31.913Z,2.3
2017-01-01T02:04:41.906Z,2.4
2017-01-01T02:04:51.903Z,2.4
2017-01-01T02:05:01.895Z,2.4
2017-01-01T02:05:11.887Z,2.4
2017-01-01T02:05:21.882Z,2.4
2017-01-01T02:05:31.874Z,2.4
2017-01-01T02:05:41.865Z,2.4
2017-01-01T02:05:51.861Z,2.3
2017-01-01T02:06:01.852Z,2.4
2017-01-01T02:06:11.845Z,2.3
2017-01-01T02:06:21.838Z,2.3
2017-01-01T02:06:31.835Z,2.3
2017-01-01T02:06:41.827Z,2.2
2017-01-01T02:06:51.820Z,2.3
2017-01-01T02:07:01.814Z,2.3
2017-01-01T02:07:11.805Z,2.2
2017-01-01T02:07:21.797Z,2.2
2017-01-01T02:07:31.793Z,2.2
2017-01-01T02:07:41.785Z,2.3
2017-01-01T02:07:51.786Z,2.2
2017-01-01T02:08:01.773Z,2.3
2017-01-01T02:08:11.764Z,2.3
2017-01-01T02:08:21.757Z,2.3
2017-01-01T02:08:31.751Z,2.3
2017-01-01T02:08:41.745Z,2.2
2017-01-01T02:08:51.737Z,2.2
2017-01-01T02:09:01.732Z,2.2
2017-01-01T02:09:11.723Z,2.3
2017-01-01T02:09:21.718Z,2.4
2017-01-01T02:09:31.711Z,2.3
2017-01-01T02:09:41.702Z,2.3
2017-01-01T02:09:51.696Z,2.2
2017-01-01T02:10:01.690Z,2.3
2017-01-01T02:10:11.682Z,2.2
2017-01-01T02:10:21.678Z,2.3
2017-01-01T02:10:31.670Z,2.3
2017-01-01T02:10:41.662Z,2.3
2017-01-01T02:10:51.654Z,2.3
2017-01-01T02:11:01.651Z,2.3
2017-01-01T02:11:11.645Z,2.3
2017-01-01T02:11:21.634Z,2.3
2017-01-01T02:11:31.631Z,2.3
2017-01-01T02:11:41.620Z,2.2
2017-01-01T02:11:51.617Z,2.3
2017-01-01T02:12:01.607Z,2.3
2017-01-01T02:12:11.601Z,2.3
2017-01-01T02:12:21.593Z,2.3
2017-01-01T02:12:31.588Z,2.3
2017-01-01T02:12:41.580Z,2.2
2017-01-01T02:12:51.573Z,2.3
2017-01-01T02:13:01.569Z,2.3
2017-01-01T02:13:11.559Z,2.4
2017-01-01T02:13:21.553Z,2.3
2017-01-01T02:13:31.545Z,2.3
2017-01-01T02:13:41.541Z,2.3
2017-01-01T02:13:51.533Z,2.3
2017-01-01T02:14:01.529Z,2.3
2017-01-01T02:14:11.521Z,2.2
2017-01-01T02:14:21.513Z,2.4
2017-01-01T02:14:31.507Z,2.2
2017-01-01T02:14:41.502Z,2.2
2017-01-01T02:14:51.493Z,2.2
2017-01-01T02:15:01.489Z,2.1
2017-01-01T02:15:11.482Z,2.2
2017-01-01T02:15:21.473Z,2.2
2017-01-01T02:15:31.465Z,2.1
2017-01-01T02:15:41.459Z,2.2
2017-01-01T02:15:51.451Z,2.2
2017-01-01T02:16:01.447Z,2.2
2017-01-01T02:16:11.437Z,2.2
2017-01-01T02:16:21.430Z,2.2
2017-01-01T02:16:31.426Z,2.2
2017-01-01T02:16:41.432Z,2.2
2017-01-01T02:16:51.411Z,2.2
2017-01-01T02:17:01.402Z,2.2
2017-01-01T02:17:11.396Z,2.2
2017-01-01T02:17:21.392Z,2.2
2017-01-01T02:17:31.402Z,2.1
2017-01-01T02:17:41.375Z,2.1
2017-01-01T02:17:51.370Z,2.1
2017-01-01T02:18:01.363Z,2.1
2017-01-01T02:18:11.357Z,2.2
2017-01-01T02:18:21.348Z,2.2